• Join FlightAware (Why Join?)
  • Login
  • US Flag 
06:20AM EDT


 

Airport Tracker/Info


-or-


 

Live Flight TrackerFlight Track Log ✈ KAP21 ✈ 29-Jun-2013 ✈ KBOS - KLEB

Flight Track Log - Related Links

Times and Time Zones

All times are in EDT time to prevent confusion due to time zone crossing. See the KAP21 flight status page for this flight to view local times or setup timezone preferences in your user account.

Time Position Orientation Groundspeed Altitude Reporting Facility
EDT Latitude Longitude Course Direction KTS MPH feet Rate Location/Type
12:10PM 42.3667 -71.0167 270° West 116 133 400  Level KA90
12:10PM 42.3667 -71.0333 270° West 118 136 1,300 1,320 Climbing KA90
12:11PM 42.3667 -71.0833 270° West 118 136 2,700 1,260 Climbing KA90
12:12PM 42.3833 -71.1167 304° West 116 133 3,900 1,140 Climbing KA90
12:13PM 42.4000 -71.1667 294° West 120 138 5,200 1,080 Climbing KA90
12:15PM 42.4333 -71.2000 324° Northwest 131 151 6,400 900 Climbing KA90
12:17PM 42.5167 -71.2333 344° North 188 216 8,100 540 Climbing KA90
12:18PM 42.5667 -71.2500 346° North 195 224 8,100  Level KA90
12:18PM 42.6167 -71.2833 334° Northwest 207 238 8,100  Level KA90
12:19PM 42.6667 -71.3000 346° North 207 238 8,100  Level KA90
12:20PM 42.7167 -71.3167 346° North 201 231 8,100  Level KA90
12:21PM 42.7667 -71.3667 324° Northwest 194 223 8,100  Level KA90
12:22PM 42.8167 -71.4167 324° Northwest 193 222 8,100  Level KA90
12:23PM 42.8500 -71.4667 312° West 193 222 8,100  Level KA90
12:24PM 42.8833 -71.5000 324° Northwest 194 223 8,100  Level KA90
12:25PM 42.9333 -71.5500 324° Northwest 195 224 8,100  Level KA90
12:26PM 42.9667 -71.6000 312° West 194 223 8,100  Level KA90
12:27PM 43.0039 -71.6281 331° Northwest 208 239 8,100  Level Boston Center
12:28PM 43.0417 -71.6703 321° Northwest 215 247 8,100  Level Boston Center
12:29PM 43.0881 -71.7181 323° Northwest 201 231 8,100  Level Boston Center
12:30PM 43.1258 -71.7575 323° Northwest 191 220 8,100  Level Boston Center
12:31PM 43.1697 -71.8053 322° Northwest 186 214 8,100  Level Boston Center
12:32PM 43.2053 -71.8447 321° Northwest 186 214 8,100  Level Boston Center
12:33PM 43.2494 -71.8928 322° Northwest 186 214 8,100  Level Boston Center
12:34PM 43.2828 -71.9297 321° Northwest 186 214 8,100 -180 Level Boston Center
12:35PM 43.3269 -71.9778 322° Northwest 186 214 7,800 -540 Descending Boston Center
12:36PM 43.3667 -72.0175 324° Northwest 186 214 7,100 -900 Descending Boston Center
12:37PM 43.4189 -72.0769 320° Northwest 201 231 6,000 -1,140 Descending Boston Center